createdAt,value
2023-04-21T00:01:17.616Z,31.05
2023-04-21T00:03:44.496Z,31.23
2023-04-21T00:06:11.024Z,30.15
2023-04-21T00:08:37.783Z,29.65
2023-04-21T00:11:04.280Z,33.00
2023-04-21T00:13:31.000Z,28.65
2023-04-21T00:15:57.736Z,30.83
2023-04-21T00:18:24.172Z,29.45
2023-04-21T00:20:50.570Z,30.15
2023-04-21T00:23:17.234Z,30.20
2023-04-21T00:25:43.792Z,30.02
2023-04-21T00:28:10.239Z,33.47
2023-04-21T00:30:36.640Z,32.95
2023-04-21T00:33:03.162Z,31.88
2023-04-21T00:35:29.887Z,29.33
2023-04-21T00:37:56.655Z,32.92
2023-04-21T00:40:23.340Z,33.15
2023-04-21T00:42:49.901Z,31.27
2023-04-21T00:45:16.354Z,34.17
2023-04-21T00:47:43.459Z,31.85
2023-04-21T00:50:11.393Z,30.95
2023-04-21T00:52:40.432Z,29.27
2023-04-21T00:55:07.694Z,34.92
2023-04-21T00:57:39.591Z,32.83
2023-04-21T01:00:09.261Z,36.15
2023-04-21T01:02:37.279Z,34.05
2023-04-21T01:05:07.071Z,33.72
2023-04-21T01:07:33.522Z,34.90
2023-04-21T01:10:00.222Z,36.75
2023-04-21T01:12:26.684Z,37.30
2023-04-21T01:14:53.234Z,34.22
2023-04-21T01:17:21.384Z,33.17
2023-04-21T01:19:50.793Z,33.28
2023-04-21T01:22:17.523Z,33.58
2023-04-21T01:24:46.002Z,32.25
2023-04-21T01:27:15.816Z,30.98
2023-04-21T01:29:43.403Z,35.50
2023-04-21T01:32:13.072Z,33.25
2023-04-21T01:34:42.678Z,33.42
2023-04-21T01:37:13.894Z,36.90
2023-04-21T01:39:44.654Z,34.72
2023-04-21T01:42:11.497Z,33.70
2023-04-21T01:44:38.339Z,35.00
2023-04-21T01:47:05.580Z,36.20
2023-04-21T01:49:32.612Z,42.35
2023-04-21T01:51:59.387Z,34.83
2023-04-21T01:54:28.203Z,38.28
2023-04-21T01:56:54.672Z,34.90
2023-04-21T01:59:21.419Z,42.03
2023-04-21T02:01:48.813Z,41.70
2023-04-21T02:04:15.792Z,35.67
2023-04-21T02:06:42.681Z,38.83
2023-04-21T02:09:09.546Z,38.65
2023-04-21T02:11:35.833Z,39.45
2023-04-21T02:14:02.287Z,41.70
2023-04-21T02:16:29.097Z,39.08
2023-04-21T02:18:57.996Z,42.30
2023-04-21T02:21:25.639Z,40.55
2023-04-21T02:23:52.443Z,39.72
2023-04-21T02:26:21.901Z,40.80
2023-04-21T02:28:48.398Z,41.05
2023-04-21T02:31:16.230Z,40.50
2023-04-21T02:33:42.751Z,40.63
2023-04-21T02:36:09.130Z,72.78
2023-04-21T02:38:35.815Z,38.42
2023-04-21T02:41:02.457Z,38.63
2023-04-21T02:43:28.870Z,73.43
2023-04-21T02:45:55.337Z,50.40
2023-04-21T02:48:21.998Z,38.53
2023-04-21T02:50:49.671Z,81.05
2023-04-21T02:53:16.347Z,73.70
2023-04-21T02:55:43.328Z,49.25
2023-04-21T02:58:09.714Z,54.80
2023-04-21T03:00:36.235Z,104.10
2023-04-21T03:03:03.424Z,68.18
2023-04-21T03:05:30.147Z,56.25
2023-04-21T03:07:56.566Z,79.75
2023-04-21T03:10:23.053Z,74.47
2023-04-21T03:12:49.821Z,49.28
2023-04-21T03:15:16.594Z,82.22
2023-04-21T03:17:43.506Z,70.38
2023-04-21T03:20:10.216Z,103.50
2023-04-21T03:22:36.704Z,53.38
2023-04-21T03:25:03.810Z,122.85
2023-04-21T03:27:30.483Z,86.50
2023-04-21T03:29:57.209Z,128.38
2023-04-21T03:32:23.802Z,81.65
2023-04-21T03:34:50.408Z,63.60
2023-04-21T03:37:17.184Z,48.10
2023-04-21T03:39:43.585Z,35.75
2023-04-21T03:42:10.257Z,31.73
2023-04-21T03:44:36.846Z,34.00
2023-04-21T03:47:03.243Z,39.90
2023-04-21T03:49:29.665Z,33.00
2023-04-21T03:51:56.030Z,41.75
2023-04-21T03:54:22.497Z,40.40
2023-04-21T03:56:48.910Z,38.40
2023-04-21T03:59:15.287Z,29.77
2023-04-21T04:01:41.743Z,36.60
2023-04-21T04:04:08.406Z,35.85
2023-04-21T04:06:34.970Z,39.95
2023-04-21T04:09:02.070Z,35.58
2023-04-21T04:11:28.595Z,46.97
2023-04-21T04:13:54.966Z,37.58
2023-04-21T04:16:21.410Z,37.60
2023-04-21T04:18:50.387Z,39.08
2023-04-21T04:21:17.020Z,39.20
2023-04-21T04:23:43.439Z,41.53
2023-04-21T04:26:09.779Z,38.95
2023-04-21T04:28:36.211Z,42.97
2023-04-21T04:31:02.769Z,39.20
2023-04-21T04:33:29.375Z,40.10
2023-04-21T04:35:56.462Z,40.80
2023-04-21T04:38:23.109Z,37.80
2023-04-21T04:40:56.626Z,39.65
2023-04-21T04:43:23.630Z,41.17
2023-04-21T04:45:50.274Z,41.13
2023-04-21T04:48:17.060Z,43.55
2023-04-21T04:50:43.647Z,44.17
2023-04-21T04:53:10.043Z,38.28
2023-04-21T04:55:36.450Z,38.15
2023-04-21T04:58:03.048Z,36.47
2023-04-21T05:00:29.547Z,41.55
2023-04-21T05:02:56.388Z,33.85
2023-04-21T05:05:22.931Z,39.67
2023-04-21T05:07:49.348Z,37.15
2023-04-21T05:10:15.784Z,33.38
2023-04-21T05:12:42.278Z,34.92
2023-04-21T05:15:09.245Z,34.15
2023-04-21T05:17:35.797Z,34.28
2023-04-21T05:20:04.838Z,31.40
2023-04-21T05:22:31.344Z,33.38
2023-04-21T05:24:58.599Z,33.30
2023-04-21T05:27:25.121Z,33.90
2023-04-21T05:29:52.102Z,36.65
2023-04-21T05:32:19.072Z,34.83
2023-04-21T05:34:45.940Z,35.20
2023-04-21T05:37:12.378Z,32.72
2023-04-21T05:39:39.488Z,34.75
2023-04-21T05:42:06.147Z,32.45
2023-04-21T05:44:32.888Z,33.60
2023-04-21T05:46:59.322Z,32.85
2023-04-21T05:49:26.708Z,37.72
2023-04-21T05:51:53.321Z,36.05
2023-04-21T05:54:20.073Z,37.65
2023-04-21T05:56:46.969Z,33.63
2023-04-21T05:59:13.721Z,32.70
2023-04-21T06:01:40.284Z,32.83
2023-04-21T06:04:07.177Z,32.65
2023-04-21T06:06:34.074Z,32.20
2023-04-21T06:09:00.623Z,32.22
2023-04-21T06:11:27.154Z,27.55
2023-04-21T06:13:53.760Z,29.48
2023-04-21T06:16:20.718Z,33.70
2023-04-21T06:18:47.149Z,35.20
2023-04-21T06:21:13.688Z,34.35
2023-04-21T06:23:40.143Z,28.25
2023-04-21T06:26:07.418Z,29.70
2023-04-21T06:28:35.207Z,29.08
2023-04-21T06:31:03.033Z,27.40
2023-04-21T06:33:30.578Z,28.38
2023-04-21T06:35:57.039Z,30.77
2023-04-21T06:38:23.564Z,30.42
2023-04-21T06:40:50.671Z,36.47
2023-04-21T06:43:17.356Z,31.90
2023-04-21T06:45:44.825Z,31.35
2023-04-21T06:48:11.356Z,30.05
2023-04-21T06:50:39.614Z,34.38
2023-04-21T06:53:07.290Z,29.63
2023-04-21T06:55:34.106Z,28.83
2023-04-21T06:58:01.948Z,29.13
2023-04-21T07:00:29.305Z,26.98
2023-04-21T07:02:56.149Z,31.48
2023-04-21T07:05:22.635Z,26.55
2023-04-21T07:07:49.126Z,27.83
2023-04-21T07:10:15.667Z,29.60
2023-04-21T07:12:42.202Z,26.30
2023-04-21T07:15:09.740Z,26.98
2023-04-21T07:17:37.415Z,24.48
2023-04-21T07:20:04.556Z,27.15
2023-04-21T07:22:31.080Z,25.25
2023-04-21T07:24:57.694Z,27.95
2023-04-21T07:27:24.149Z,30.60
2023-04-21T07:29:50.902Z,30.80
2023-04-21T07:32:17.331Z,37.22
2023-04-21T07:34:43.798Z,32.63
2023-04-21T07:37:10.307Z,23.05
2023-04-21T07:39:36.814Z,28.08
2023-04-21T07:42:03.311Z,27.02
2023-04-21T07:44:29.775Z,23.60
2023-04-21T07:46:56.501Z,24.40
2023-04-21T07:49:23.533Z,21.27
2023-04-21T07:51:50.203Z,23.40
2023-04-21T07:54:16.624Z,22.85
2023-04-21T07:56:43.207Z,26.65
2023-04-21T07:59:09.779Z,25.38
2023-04-21T08:01:36.217Z,20.75
2023-04-21T08:04:03.053Z,22.77
2023-04-21T08:06:29.772Z,22.13
2023-04-21T08:08:56.338Z,23.42
2023-04-21T08:11:22.991Z,23.52
2023-04-21T08:13:49.882Z,23.67
2023-04-21T08:16:16.641Z,20.38
2023-04-21T08:18:43.197Z,20.85
2023-04-21T08:21:09.648Z,24.52
2023-04-21T08:23:36.200Z,20.90
2023-04-21T08:26:03.176Z,22.33
2023-04-21T08:28:29.668Z,17.13
2023-04-21T08:30:56.154Z,17.65
2023-04-21T08:33:22.600Z,20.02
2023-04-21T08:36:02.320Z,20.88
2023-04-21T08:38:30.589Z,18.70
2023-04-21T08:40:59.124Z,20.40
2023-04-21T08:43:26.174Z,17.67
2023-04-21T08:45:53.191Z,16.67
2023-04-21T08:48:21.895Z,19.50
2023-04-21T08:50:52.170Z,18.00
2023-04-21T08:53:18.488Z,18.02
2023-04-21T08:55:49.243Z,18.08
2023-04-21T08:58:17.993Z,17.77
2023-04-21T09:00:44.578Z,15.88
2023-04-21T09:03:23.353Z,16.25
2023-04-21T09:06:03.872Z,16.27
2023-04-21T09:08:31.980Z,16.35
2023-04-21T09:11:00.353Z,14.45
2023-04-21T09:13:32.825Z,14.68
2023-04-21T09:16:01.413Z,14.85
2023-04-21T09:18:31.195Z,15.40
2023-04-21T09:21:16.945Z,14.13
2023-04-21T09:23:49.179Z,10.98
2023-04-21T09:26:17.046Z,11.63
2023-04-21T09:28:44.731Z,10.95
2023-04-21T09:31:19.484Z,11.52
2023-04-21T09:36:23.509Z,12.00
2023-04-21T09:41:32.356Z,11.57
2023-04-21T09:44:00.525Z,11.75
2023-04-21T09:46:36.345Z,10.18
2023-04-21T09:49:05.583Z,9.80
2023-04-21T09:51:56.307Z,8.80
2023-04-21T09:54:30.027Z,10.88
2023-04-21T09:57:04.662Z,10.48
2023-04-21T09:59:41.688Z,10.25
2023-04-21T10:02:10.709Z,13.95
2023-04-21T10:04:39.753Z,9.82
2023-04-21T10:07:07.044Z,13.88
2023-04-21T10:09:40.866Z,13.80
2023-04-21T10:12:09.688Z,12.10
2023-04-21T10:14:36.923Z,12.98
2023-04-21T10:17:12.378Z,14.95
2023-04-21T10:19:52.954Z,11.40
2023-04-21T10:22:35.320Z,13.43
2023-04-21T10:25:03.945Z,14.02
2023-04-21T10:27:41.660Z,14.18
2023-04-21T10:30:25.453Z,13.25
2023-04-21T10:33:06.654Z,12.52
2023-04-21T10:36:02.077Z,12.13
2023-04-21T10:38:42.930Z,12.73
2023-04-21T10:41:30.991Z,10.65
2023-04-21T10:44:02.341Z,12.65
2023-04-21T10:46:39.305Z,9.63
2023-04-21T10:49:12.745Z,10.85
2023-04-21T10:52:00.404Z,9.25
2023-04-21T10:54:38.559Z,10.20
2023-04-21T10:57:09.844Z,8.90
2023-04-21T10:59:36.391Z,9.77
2023-04-21T11:02:07.305Z,10.40
2023-04-21T11:04:34.284Z,9.07
2023-04-21T11:07:23.647Z,9.43
2023-04-21T11:10:06.766Z,8.93
2023-04-21T11:12:37.619Z,8.82
2023-04-21T11:15:12.241Z,9.82
2023-04-21T11:17:39.022Z,9.40
2023-04-21T11:20:10.005Z,7.45
2023-04-21T11:22:37.721Z,8.60
2023-04-21T11:25:17.390Z,7.32
2023-04-21T11:27:56.480Z,7.40
2023-04-21T11:30:33.134Z,8.27
2023-04-21T11:33:00.649Z,8.13
2023-04-21T11:35:27.481Z,8.55
2023-04-21T11:37:55.699Z,7.30
2023-04-21T11:40:23.241Z,7.50
2023-04-21T11:42:50.695Z,7.38
2023-04-21T11:45:21.274Z,9.90
2023-04-21T11:47:48.799Z,8.70
2023-04-21T11:50:35.387Z,8.27
2023-04-21T11:53:02.902Z,7.72
2023-04-21T11:55:29.411Z,8.75
2023-04-21T11:57:57.132Z,8.65
2023-04-21T12:00:23.655Z,9.52
2023-04-21T12:02:56.706Z,6.95
2023-04-21T12:05:23.415Z,7.32
2023-04-21T12:07:50.130Z,7.13
2023-04-21T12:10:21.566Z,7.65
2023-04-21T12:12:48.609Z,8.88
2023-04-21T12:15:20.940Z,7.70
2023-04-21T12:17:50.618Z,7.63
2023-04-21T12:20:24.531Z,7.17
2023-04-21T12:22:51.293Z,7.57
2023-04-21T12:25:18.821Z,6.07
2023-04-21T12:27:53.497Z,6.25
2023-04-21T12:30:20.923Z,7.63
2023-04-21T12:32:47.719Z,6.72
2023-04-21T12:35:14.485Z,5.93
2023-04-21T12:37:41.123Z,5.30
2023-04-21T12:40:08.220Z,4.80
2023-04-21T12:42:37.302Z,5.70
2023-04-21T12:45:06.108Z,5.70
2023-04-21T12:47:36.234Z,4.38
2023-04-21T12:50:02.860Z,4.07
2023-04-21T12:52:29.340Z,5.57
2023-04-21T12:54:56.091Z,4.68
2023-04-21T12:57:25.144Z,3.97
2023-04-21T12:59:51.950Z,3.92
2023-04-21T13:02:18.598Z,3.53
2023-04-21T13:04:45.358Z,3.10
2023-04-21T13:07:11.855Z,3.17
2023-04-21T13:09:38.759Z,2.83
2023-04-21T13:12:05.298Z,3.15
2023-04-21T13:14:32.073Z,3.10
2023-04-21T13:16:59.078Z,4.55
2023-04-21T13:19:25.597Z,4.63
2023-04-21T13:21:54.243Z,3.80
2023-04-21T13:24:22.503Z,4.00
2023-04-21T13:26:49.474Z,3.65
2023-04-21T13:29:16.576Z,5.15
2023-04-21T13:31:44.073Z,5.32
2023-04-21T13:34:10.985Z,3.67
2023-04-21T13:36:37.823Z,3.00
2023-04-21T13:39:05.377Z,4.68
2023-04-21T13:41:31.829Z,3.92
2023-04-21T13:43:58.914Z,4.10
2023-04-21T13:46:25.477Z,3.13
2023-04-21T13:48:51.937Z,3.40
2023-04-21T13:51:20.871Z,3.75
2023-04-21T13:53:48.215Z,3.65
2023-04-21T13:56:15.692Z,5.05
2023-04-21T13:58:45.144Z,3.75
2023-04-21T14:01:17.211Z,2.72
2023-04-21T14:03:45.358Z,2.95
2023-04-21T14:06:12.198Z,4.25
2023-04-21T14:08:39.076Z,3.05
2023-04-21T14:11:15.533Z,2.70
2023-04-21T14:13:59.500Z,3.47
2023-04-21T14:16:29.238Z,3.55
2023-04-21T14:18:55.932Z,3.92
2023-04-21T14:21:23.752Z,3.70
2023-04-21T14:23:50.340Z,3.35
2023-04-21T14:26:17.059Z,2.90
2023-04-21T14:28:44.071Z,5.07
2023-04-21T14:31:10.582Z,3.72
2023-04-21T14:33:37.343Z,3.75
2023-04-21T14:36:04.137Z,4.93
2023-04-21T14:38:30.734Z,3.38
2023-04-21T14:40:57.262Z,3.00
2023-04-21T14:43:23.971Z,3.30
2023-04-21T14:45:50.756Z,4.68
2023-04-21T14:48:17.390Z,3.67
2023-04-21T14:50:44.046Z,3.63
2023-04-21T14:53:11.661Z,3.25
2023-04-21T14:55:38.411Z,5.53
2023-04-21T14:58:05.141Z,2.72
2023-04-21T15:00:31.596Z,3.08
2023-04-21T15:02:58.686Z,3.42
2023-04-21T15:05:25.193Z,3.40
2023-04-21T15:07:51.943Z,3.70
2023-04-21T15:10:18.377Z,4.95
2023-04-21T15:12:45.021Z,4.90
2023-04-21T15:15:11.644Z,4.05
2023-04-21T15:17:38.102Z,4.07
2023-04-21T15:20:08.067Z,3.90
2023-04-21T15:22:34.935Z,4.85
2023-04-21T15:25:01.751Z,4.40
2023-04-21T15:27:28.689Z,3.45
2023-04-21T15:29:55.338Z,3.60
2023-04-21T15:32:23.510Z,4.05
2023-04-21T15:34:51.518Z,6.65
2023-04-21T15:37:18.819Z,3.95
2023-04-21T15:39:45.228Z,4.25
2023-04-21T15:42:12.089Z,4.03
2023-04-21T15:44:40.525Z,4.80
2023-04-21T15:47:06.974Z,4.90
2023-04-21T15:49:34.325Z,2.90
2023-04-21T15:52:03.780Z,3.30
2023-04-21T15:54:30.276Z,3.70
2023-04-21T15:56:56.981Z,3.30
2023-04-21T15:59:26.442Z,5.10
2023-04-21T16:01:53.225Z,4.70
2023-04-21T16:04:23.954Z,4.30
2023-04-21T16:07:09.604Z,4.28
2023-04-21T16:09:36.855Z,3.45
2023-04-21T16:12:24.313Z,5.32
2023-04-21T16:14:59.612Z,4.32
2023-04-21T16:17:30.726Z,4.73
2023-04-21T16:19:57.372Z,4.43
2023-04-21T16:22:24.353Z,3.50
2023-04-21T16:24:50.947Z,5.32
2023-04-21T16:27:17.462Z,4.15
2023-04-21T16:29:46.271Z,3.58
2023-04-21T16:32:12.719Z,3.30
2023-04-21T16:34:39.624Z,4.45
2023-04-21T16:37:06.401Z,4.22
2023-04-21T16:39:32.891Z,4.93
2023-04-21T16:42:00.326Z,4.65
2023-04-21T16:44:27.041Z,4.82
2023-04-21T16:46:53.588Z,5.15
2023-04-21T16:49:20.140Z,3.58
2023-04-21T16:51:47.930Z,5.45
2023-04-21T16:54:15.539Z,3.88
2023-04-21T16:56:42.017Z,3.55
2023-04-21T16:59:09.279Z,4.47
2023-04-21T17:01:35.947Z,3.67
2023-04-21T17:04:02.602Z,5.82
2023-04-21T17:06:29.726Z,3.45
2023-04-21T17:08:56.362Z,3.03
2023-04-21T17:11:22.830Z,3.55
2023-04-21T17:13:51.468Z,5.47
2023-04-21T17:16:18.014Z,4.10
2023-04-21T17:18:44.456Z,2.75
2023-04-21T17:21:10.888Z,6.75
2023-04-21T17:23:37.671Z,5.45
2023-04-21T17:26:04.216Z,4.15
2023-04-21T17:28:31.016Z,6.00
2023-04-21T17:31:13.769Z,7.32
2023-04-21T17:33:42.180Z,7.00
2023-04-21T17:36:08.976Z,3.72
2023-04-21T17:38:36.422Z,7.82
2023-04-21T17:41:03.017Z,7.30
2023-04-21T17:43:32.353Z,5.35
2023-04-21T17:45:58.931Z,5.97
2023-04-21T17:48:25.721Z,5.00
2023-04-21T17:50:52.231Z,5.65
2023-04-21T17:53:23.713Z,5.63
2023-04-21T17:55:50.613Z,6.03
2023-04-21T17:58:18.182Z,6.05
2023-04-21T18:00:44.711Z,6.78
2023-04-21T18:03:11.405Z,6.00
2023-04-21T18:05:38.566Z,6.78
2023-04-21T18:08:05.407Z,7.05
2023-04-21T18:10:31.982Z,7.90
2023-04-21T18:12:59.029Z,5.97
2023-04-21T18:15:25.829Z,8.68
2023-04-21T18:17:52.586Z,8.45
2023-04-21T18:20:19.381Z,6.05
2023-04-21T18:22:46.009Z,6.25
2023-04-21T18:25:14.563Z,6.03
2023-04-21T18:27:41.267Z,6.35
2023-04-21T18:30:09.807Z,6.82
2023-04-21T18:32:37.429Z,9.23
2023-04-21T18:35:06.036Z,7.05
2023-04-21T18:37:32.898Z,5.68
2023-04-21T18:40:00.422Z,5.63
2023-04-21T18:42:26.974Z,6.18
2023-04-21T18:44:57.084Z,6.43
2023-04-21T18:47:24.872Z,9.07
2023-04-21T18:49:51.686Z,8.52
2023-04-21T18:52:18.531Z,5.95
2023-04-21T18:54:45.493Z,7.13
2023-04-21T18:57:12.002Z,6.57
2023-04-21T18:59:38.645Z,6.95
2023-04-21T19:02:05.053Z,7.07
2023-04-21T19:04:35.543Z,6.25
2023-04-21T19:07:02.113Z,6.80
2023-04-21T19:09:28.955Z,7.97
2023-04-21T19:12:06.332Z,8.38
2023-04-21T19:14:42.511Z,8.23
2023-04-21T19:17:13.079Z,10.10
2023-04-21T19:19:39.393Z,6.68
2023-04-21T19:22:05.844Z,7.53
2023-04-21T19:24:41.543Z,9.85
2023-04-21T19:27:08.018Z,7.05
2023-04-21T19:29:38.151Z,10.02
2023-04-21T19:32:08.013Z,8.88
2023-04-21T19:34:35.455Z,9.32
2023-04-21T19:37:02.431Z,6.65
2023-04-21T19:39:29.069Z,6.93
2023-04-21T19:41:55.676Z,6.20
2023-04-21T19:44:22.621Z,5.40
2023-04-21T19:46:49.177Z,10.43
2023-04-21T19:49:15.780Z,12.65
2023-04-21T19:51:42.189Z,10.02
2023-04-21T19:54:18.300Z,10.95
2023-04-21T19:56:51.739Z,8.88
2023-04-21T19:59:18.644Z,11.13
2023-04-21T20:01:45.113Z,10.65
2023-04-21T20:04:12.403Z,8.32
2023-04-21T20:06:39.220Z,10.23
2023-04-21T20:09:06.978Z,11.82
2023-04-21T20:11:33.762Z,13.90
2023-04-21T20:14:00.245Z,8.88
2023-04-21T20:16:30.622Z,8.45
2023-04-21T20:18:57.557Z,12.50
2023-04-21T20:21:24.000Z,9.70
2023-04-21T20:23:50.732Z,8.75
2023-04-21T20:26:18.806Z,8.90
2023-04-21T20:28:46.194Z,9.63
2023-04-21T20:31:13.157Z,9.18
2023-04-21T20:33:39.641Z,8.43
2023-04-21T20:36:06.158Z,6.97
2023-04-21T20:38:33.818Z,6.30
2023-04-21T20:41:00.965Z,6.10
2023-04-21T20:43:28.218Z,7.07
2023-04-21T20:45:54.957Z,11.05
2023-04-21T20:48:21.388Z,10.50
2023-04-21T20:50:51.233Z,9.82
2023-04-21T20:53:20.212Z,9.18
2023-04-21T20:55:46.734Z,11.20
2023-04-21T20:58:13.709Z,11.45
2023-04-21T21:00:40.248Z,10.40
2023-04-21T21:03:06.769Z,11.60
2023-04-21T21:05:33.434Z,9.82
2023-04-21T21:07:59.957Z,7.85
2023-04-21T21:10:28.724Z,9.50
2023-04-21T21:12:55.435Z,16.67
2023-04-21T21:15:22.259Z,9.43
2023-04-21T21:17:48.763Z,9.20
2023-04-21T21:20:15.334Z,8.25
2023-04-21T21:22:42.094Z,11.80
2023-04-21T21:25:09.093Z,8.40
2023-04-21T21:27:35.647Z,9.25
2023-04-21T21:30:02.280Z,9.57
2023-04-21T21:32:28.814Z,10.32
2023-04-21T21:34:57.506Z,13.20
2023-04-21T21:37:23.925Z,8.88
2023-04-21T21:39:51.487Z,9.27
2023-04-21T21:42:18.056Z,10.05
2023-04-21T21:44:44.515Z,10.05
2023-04-21T21:47:11.040Z,12.27
2023-04-21T21:49:37.859Z,10.82
2023-04-21T21:52:07.576Z,8.98
2023-04-21T21:54:34.218Z,13.48
2023-04-21T21:57:00.795Z,10.10
2023-04-21T21:59:27.347Z,10.85
2023-04-21T22:01:54.023Z,11.45
2023-04-21T22:04:20.822Z,10.68
2023-04-21T22:06:49.580Z,10.73
2023-04-21T22:09:16.092Z,7.90
2023-04-21T22:11:42.589Z,7.85
2023-04-21T22:14:22.057Z,9.60
2023-04-21T22:16:51.143Z,8.68
2023-04-21T22:19:17.559Z,10.18
2023-04-21T22:21:43.914Z,8.98
2023-04-21T22:24:12.998Z,10.15
2023-04-21T22:26:39.959Z,8.73
2023-04-21T22:29:06.513Z,8.43
2023-04-21T22:31:33.066Z,9.88
2023-04-21T22:33:59.869Z,10.10
2023-04-21T22:36:26.601Z,11.55
2023-04-21T22:38:53.354Z,9.90
2023-04-21T22:41:20.182Z,8.93
2023-04-21T22:43:46.768Z,9.02
2023-04-21T22:46:13.197Z,18.35
2023-04-21T22:48:39.635Z,9.65
2023-04-21T22:51:07.138Z,8.55
2023-04-21T22:53:33.842Z,11.27
2023-04-21T22:56:00.324Z,12.25
2023-04-21T22:58:27.092Z,12.05
2023-04-21T23:00:53.537Z,11.65
2023-04-21T23:03:20.156Z,10.95
2023-04-21T23:05:46.631Z,9.38
2023-04-21T23:08:13.060Z,9.38
2023-04-21T23:10:40.452Z,12.05
2023-04-21T23:13:07.023Z,11.07
2023-04-21T23:15:33.559Z,12.18
2023-04-21T23:18:00.293Z,8.18
2023-04-21T23:20:26.758Z,10.50
2023-04-21T23:22:53.194Z,12.88
2023-04-21T23:25:19.621Z,16.52
2023-04-21T23:27:45.985Z,12.57
2023-04-21T23:30:12.731Z,14.05
2023-04-21T23:32:39.488Z,12.88
2023-04-21T23:35:06.871Z,10.35
2023-04-21T23:37:33.370Z,11.80
2023-04-21T23:39:59.860Z,11.73
2023-04-21T23:42:26.346Z,12.82
2023-04-21T23:44:52.895Z,10.75
2023-04-21T23:47:19.475Z,12.93
2023-04-21T23:49:46.687Z,12.65
2023-04-21T23:52:13.053Z,11.57
2023-04-21T23:54:39.510Z,12.07
2023-04-21T23:57:05.937Z,12.38
2023-04-21T23:59:32.336Z,15.38
